createdAt,value
2022-10-16T00:01:39.516Z,6.25
2022-10-16T00:04:07.154Z,6.82
2022-10-16T00:06:34.675Z,4.88
2022-10-16T00:09:02.311Z,6.35
2022-10-16T00:11:37.644Z,6.72
2022-10-16T00:14:08.627Z,6.05
2022-10-16T00:16:36.299Z,6.57
2022-10-16T00:19:04.361Z,7.75
2022-10-16T00:21:32.960Z,7.30
2022-10-16T00:24:03.598Z,10.27
2022-10-16T00:26:32.786Z,7.10
2022-10-16T00:29:00.339Z,9.73
2022-10-16T00:31:28.396Z,7.65
2022-10-16T00:33:55.836Z,8.45
2022-10-16T00:36:26.087Z,7.97
2022-10-16T00:38:56.071Z,6.95
2022-10-16T00:41:26.293Z,9.13
2022-10-16T00:43:59.212Z,6.95
2022-10-16T00:46:31.250Z,7.43
2022-10-16T00:49:04.590Z,9.02
2022-10-16T00:51:35.802Z,10.30
2022-10-16T00:54:07.563Z,6.85
2022-10-16T00:56:35.103Z,7.18
2022-10-16T00:59:08.676Z,7.97
2022-10-16T01:01:36.126Z,7.93
2022-10-16T01:04:03.936Z,8.32
2022-10-16T01:06:44.584Z,9.13
2022-10-16T01:09:17.651Z,9.82
2022-10-16T01:12:00.649Z,11.18
2022-10-16T01:14:41.834Z,7.95
2022-10-16T01:20:02.656Z,8.65
2022-10-16T01:22:49.483Z,7.82
2022-10-16T01:25:28.212Z,9.07
2022-10-16T01:27:57.616Z,6.50
2022-10-16T01:30:31.689Z,10.52
2022-10-16T01:33:21.907Z,8.20
2022-10-16T01:35:54.458Z,10.98
2022-10-16T01:38:34.507Z,16.30
2022-10-16T01:41:11.070Z,9.55
2022-10-16T01:43:46.680Z,7.43
2022-10-16T01:46:18.140Z,7.80
2022-10-16T01:48:46.017Z,7.53
2022-10-16T01:51:15.873Z,8.30
2022-10-16T01:53:48.312Z,8.20
2022-10-16T01:56:17.597Z,8.63
2022-10-16T01:58:51.843Z,7.88
2022-10-16T02:01:22.118Z,10.18
2022-10-16T02:03:54.715Z,10.63
2022-10-16T02:06:22.969Z,8.98
2022-10-16T02:08:50.543Z,7.05
2022-10-16T02:11:17.968Z,7.28
2022-10-16T02:13:49.194Z,8.20
2022-10-16T02:16:16.967Z,7.13
2022-10-16T02:18:45.405Z,8.70
2022-10-16T02:21:26.567Z,9.55
2022-10-16T02:26:38.633Z,8.25
2022-10-16T02:29:11.418Z,7.35
2022-10-16T02:31:45.066Z,7.82
2022-10-16T02:34:14.950Z,8.90
2022-10-16T02:36:43.909Z,8.45
2022-10-16T02:39:11.795Z,8.68
2022-10-16T02:41:39.820Z,9.13
2022-10-16T02:44:07.244Z,11.90
2022-10-16T02:46:34.735Z,7.93
2022-10-16T02:49:02.208Z,7.40
2022-10-16T02:51:29.600Z,10.85
2022-10-16T02:53:56.983Z,11.27
2022-10-16T02:56:25.040Z,10.15
2022-10-16T02:58:52.454Z,12.07
2022-10-16T03:01:20.085Z,7.95
2022-10-16T03:03:47.547Z,12.38
2022-10-16T03:06:14.994Z,9.30
2022-10-16T03:08:42.411Z,8.38
2022-10-16T03:11:10.002Z,8.80
2022-10-16T03:13:37.414Z,8.50
2022-10-16T03:16:05.470Z,9.85
2022-10-16T03:18:32.898Z,8.98
2022-10-16T03:21:00.518Z,9.57
2022-10-16T03:23:28.033Z,10.43
2022-10-16T03:25:55.479Z,9.68
2022-10-16T03:28:22.930Z,8.98
2022-10-16T03:30:50.447Z,10.82
2022-10-16T03:33:17.864Z,10.65
2022-10-16T03:35:53.385Z,8.57
2022-10-16T03:38:20.916Z,8.07
2022-10-16T03:40:48.420Z,11.05
2022-10-16T03:45:43.108Z,9.93
2022-10-16T03:48:12.566Z,12.32
2022-10-16T03:50:39.941Z,9.27
2022-10-16T03:53:07.382Z,11.30
2022-10-16T03:55:35.578Z,12.52
2022-10-16T03:58:03.012Z,11.70
2022-10-16T04:00:30.427Z,12.00
2022-10-16T04:02:57.964Z,11.63
2022-10-16T04:05:25.451Z,12.45
2022-10-16T04:07:52.979Z,11.45
2022-10-16T04:10:20.428Z,8.85
2022-10-16T04:12:47.893Z,11.98
2022-10-16T04:15:15.331Z,13.90
2022-10-16T04:17:42.750Z,13.50
2022-10-16T04:20:10.399Z,10.48
2022-10-16T04:22:37.805Z,9.25
2022-10-16T04:25:05.621Z,11.35
2022-10-16T04:27:33.226Z,8.95
2022-10-16T04:30:01.744Z,11.60
2022-10-16T04:32:29.140Z,12.55
2022-10-16T04:34:56.726Z,13.50
2022-10-16T04:37:28.834Z,14.52
2022-10-16T04:39:56.674Z,17.92
2022-10-16T04:42:24.189Z,14.45
2022-10-16T04:44:51.584Z,14.70
2022-10-16T04:47:18.970Z,12.15
2022-10-16T04:49:46.342Z,16.10
2022-10-16T04:52:13.707Z,10.93
2022-10-16T04:54:41.085Z,10.60
2022-10-16T04:57:08.530Z,12.73
2022-10-16T04:59:36.067Z,10.90
2022-10-16T05:02:03.495Z,9.95
2022-10-16T05:04:30.938Z,10.38
2022-10-16T05:06:58.296Z,13.18
2022-10-16T05:09:25.780Z,16.98
2022-10-16T05:11:53.220Z,10.75
2022-10-16T05:14:20.653Z,11.82
2022-10-16T05:16:49.300Z,11.27
2022-10-16T05:19:27.333Z,11.15
2022-10-16T05:21:55.700Z,13.35
2022-10-16T05:24:23.484Z,13.35
2022-10-16T05:26:51.561Z,15.57
2022-10-16T05:29:19.063Z,11.00
2022-10-16T05:31:46.492Z,10.32
2022-10-16T05:34:14.079Z,13.80
2022-10-16T05:36:41.491Z,9.32
2022-10-16T05:39:08.880Z,10.35
2022-10-16T05:41:36.299Z,10.60
2022-10-16T05:44:07.142Z,10.13
2022-10-16T05:46:34.711Z,8.25
2022-10-16T05:49:02.536Z,10.63
2022-10-16T05:51:29.933Z,10.10
2022-10-16T05:53:57.348Z,8.65
2022-10-16T05:56:24.817Z,12.20
2022-10-16T05:58:52.179Z,8.85
2022-10-16T06:01:20.420Z,12.13
2022-10-16T06:03:47.874Z,10.23
2022-10-16T06:06:18.077Z,9.35
2022-10-16T06:08:49.293Z,10.00
2022-10-16T06:13:52.518Z,8.85
2022-10-16T06:16:20.461Z,10.55
2022-10-16T06:18:48.345Z,10.90
2022-10-16T06:21:18.971Z,12.02
2022-10-16T06:23:49.524Z,18.80
2022-10-16T06:26:20.025Z,14.45
2022-10-16T06:28:48.258Z,18.38
2022-10-16T06:31:16.622Z,13.80
2022-10-16T06:33:44.729Z,12.20
2022-10-16T06:36:15.595Z,9.35
2022-10-16T06:38:43.570Z,9.68
2022-10-16T06:41:13.683Z,8.07
2022-10-16T06:43:41.264Z,7.13
2022-10-16T06:46:12.208Z,14.60
2022-10-16T06:48:40.085Z,7.50
2022-10-16T06:51:11.188Z,8.50
2022-10-16T06:56:30.807Z,12.27
2022-10-16T07:01:26.037Z,9.32
2022-10-16T07:03:53.755Z,10.07
2022-10-16T07:06:23.162Z,11.85
2022-10-16T07:08:51.495Z,9.02
2022-10-16T07:11:21.682Z,9.52
2022-10-16T07:13:54.389Z,12.00
2022-10-16T07:16:31.636Z,8.57
2022-10-16T07:19:01.697Z,11.05
2022-10-16T07:21:37.099Z,8.02
2022-10-16T07:24:07.588Z,9.15
2022-10-16T07:26:37.343Z,9.40
2022-10-16T07:29:05.239Z,8.98
2022-10-16T07:31:32.777Z,13.60
2022-10-16T07:34:01.419Z,11.23
2022-10-16T07:36:29.057Z,8.25
2022-10-16T07:38:58.997Z,10.50
2022-10-16T07:41:29.191Z,9.85
2022-10-16T07:44:01.268Z,13.95
2022-10-16T07:46:29.481Z,8.65
2022-10-16T07:48:57.541Z,7.95
2022-10-16T07:51:26.195Z,7.80
2022-10-16T07:53:54.091Z,8.23
2022-10-16T07:56:22.106Z,7.75
2022-10-16T07:58:51.340Z,6.00
2022-10-16T08:01:19.671Z,8.50
2022-10-16T08:03:52.001Z,5.03
2022-10-16T08:06:25.109Z,5.63
2022-10-16T08:08:56.873Z,9.52
2022-10-16T08:11:24.763Z,5.85
2022-10-16T08:13:52.212Z,5.88
2022-10-16T08:16:19.731Z,6.80
2022-10-16T08:18:47.564Z,9.60
2022-10-16T08:21:20.317Z,4.35
2022-10-16T08:23:53.042Z,7.55
2022-10-16T08:26:27.517Z,7.10
2022-10-16T08:28:55.896Z,12.07
2022-10-16T08:31:24.196Z,9.25
2022-10-16T08:33:52.445Z,5.18
2022-10-16T08:36:19.836Z,6.93
2022-10-16T08:38:51.635Z,6.97
2022-10-16T08:41:31.403Z,10.10
2022-10-16T08:44:26.840Z,5.90
2022-10-16T08:47:09.262Z,9.32
2022-10-16T08:49:38.162Z,5.68
2022-10-16T08:52:11.949Z,6.15
2022-10-16T08:54:44.745Z,6.97
2022-10-16T08:57:23.055Z,6.18
2022-10-16T08:59:52.724Z,6.00
2022-10-16T09:02:26.146Z,4.47
2022-10-16T09:04:59.783Z,5.53
2022-10-16T09:07:36.198Z,4.55
2022-10-16T09:10:22.435Z,4.97
2022-10-16T09:13:11.619Z,7.25
2022-10-16T09:16:10.001Z,7.10
2022-10-16T09:19:00.954Z,5.70
2022-10-16T09:21:37.357Z,5.80
2022-10-16T09:24:20.003Z,8.95
2022-10-16T09:26:48.585Z,3.83
2022-10-16T09:29:18.249Z,5.22
2022-10-16T09:31:45.740Z,5.03
2022-10-16T09:34:25.614Z,9.18
2022-10-16T09:36:53.170Z,6.63
2022-10-16T09:39:20.618Z,7.82
2022-10-16T09:41:48.156Z,4.40
2022-10-16T09:44:35.938Z,5.72
2022-10-16T09:47:13.324Z,4.90
2022-10-16T09:49:40.748Z,10.57
2022-10-16T09:52:14.611Z,5.80
2022-10-16T09:54:55.864Z,3.63
2022-10-16T09:59:54.066Z,5.68
2022-10-16T10:02:45.116Z,3.22
2022-10-16T10:05:22.910Z,8.40
2022-10-16T10:08:07.168Z,3.63
2022-10-16T10:10:43.012Z,5.45
2022-10-16T10:13:25.414Z,5.90
2022-10-16T10:15:53.758Z,4.63
2022-10-16T10:18:24.068Z,6.53
2022-10-16T10:21:02.228Z,7.35
2022-10-16T10:23:33.963Z,2.80
2022-10-16T10:26:04.202Z,3.70
2022-10-16T10:28:56.623Z,4.50
2022-10-16T10:32:02.410Z,5.22
2022-10-16T10:34:56.655Z,4.03
2022-10-16T10:37:30.312Z,6.72
2022-10-16T10:40:17.943Z,5.22
2022-10-16T10:42:50.452Z,6.57
2022-10-16T10:45:22.264Z,4.32
2022-10-16T10:48:21.434Z,7.18
2022-10-16T10:51:11.835Z,3.88
2022-10-16T10:54:31.981Z,3.58
2022-10-16T10:57:10.227Z,4.22
2022-10-16T11:00:01.393Z,4.38
2022-10-16T11:02:56.668Z,8.25
2022-10-16T11:05:43.716Z,3.85
2022-10-16T11:08:28.672Z,7.20
2022-10-16T11:11:01.195Z,4.10
2022-10-16T11:14:01.420Z,4.28
2022-10-16T11:16:38.172Z,4.85
2022-10-16T11:19:18.418Z,5.47
2022-10-16T11:22:02.313Z,5.00
2022-10-16T11:25:05.915Z,6.45
2022-10-16T11:27:46.383Z,7.13
2022-10-16T11:30:27.880Z,4.05
2022-10-16T11:33:09.985Z,6.95
2022-10-16T11:35:45.380Z,4.47
2022-10-16T11:38:35.084Z,3.65
2022-10-16T11:41:25.311Z,5.05
2022-10-16T11:44:21.579Z,4.10
2022-10-16T11:50:14.944Z,6.05
2022-10-16T11:52:52.813Z,4.80
2022-10-16T11:55:24.893Z,5.53
2022-10-16T11:57:58.912Z,3.70
2022-10-16T12:00:32.328Z,3.45
2022-10-16T12:03:24.301Z,3.90
2022-10-16T12:06:12.057Z,3.90
2022-10-16T12:08:40.090Z,4.25
2022-10-16T12:11:27.300Z,5.55
2022-10-16T12:14:13.027Z,6.15
2022-10-16T12:16:53.715Z,4.20
2022-10-16T12:19:22.326Z,5.60
2022-10-16T12:21:51.531Z,3.50
2022-10-16T12:24:40.025Z,9.60
2022-10-16T12:27:33.773Z,4.95
2022-10-16T12:30:09.480Z,8.02
2022-10-16T12:32:47.520Z,4.97
2022-10-16T12:35:31.528Z,4.63
2022-10-16T12:38:18.255Z,4.55
2022-10-16T12:40:48.848Z,6.18
2022-10-16T12:43:28.893Z,3.45
2022-10-16T12:48:36.847Z,5.03
2022-10-16T12:51:30.519Z,5.13
2022-10-16T12:54:19.883Z,5.63
2022-10-16T12:57:21.499Z,5.68
2022-10-16T13:00:24.101Z,4.22
2022-10-16T13:02:54.854Z,3.67
2022-10-16T13:08:39.457Z,5.45
2022-10-16T13:11:15.842Z,6.03
2022-10-16T13:13:43.199Z,6.70
2022-10-16T13:16:19.365Z,6.47
2022-10-16T13:19:10.678Z,4.93
2022-10-16T13:21:46.644Z,4.88
2022-10-16T13:24:39.779Z,5.93
2022-10-16T13:27:21.680Z,8.52
2022-10-16T13:29:56.484Z,6.82
2022-10-16T13:32:24.312Z,6.30
2022-10-16T13:34:52.825Z,7.32
2022-10-16T13:37:22.549Z,5.72
2022-10-16T13:39:51.807Z,5.57
2022-10-16T13:42:28.949Z,5.63
2022-10-16T13:44:57.711Z,4.28
2022-10-16T13:47:30.556Z,6.60
2022-10-16T13:50:14.017Z,5.05
2022-10-16T13:52:42.458Z,5.18
2022-10-16T13:55:14.167Z,4.50
2022-10-16T13:57:42.443Z,5.15
2022-10-16T14:00:21.611Z,6.65
2022-10-16T14:03:13.308Z,6.55
2022-10-16T14:05:54.263Z,8.43
2022-10-16T14:08:23.277Z,5.38
2022-10-16T14:10:54.833Z,4.97
2022-10-16T14:13:37.324Z,6.78
2022-10-16T14:16:10.316Z,6.82
2022-10-16T14:18:39.975Z,6.82
2022-10-16T14:21:08.901Z,7.85
2022-10-16T14:23:41.036Z,4.72
2022-10-16T14:26:11.600Z,7.40
2022-10-16T14:28:41.640Z,5.18
2022-10-16T14:31:20.999Z,6.03
2022-10-16T14:33:48.434Z,5.53
2022-10-16T14:36:21.790Z,9.23
2022-10-16T14:39:07.552Z,11.00
2022-10-16T14:41:44.858Z,10.52
2022-10-16T14:44:13.249Z,13.30
2022-10-16T14:46:43.251Z,9.52
2022-10-16T14:49:10.601Z,12.85
2022-10-16T14:51:42.088Z,12.93
2022-10-16T14:54:14.012Z,11.75
2022-10-16T14:56:51.671Z,14.90
2022-10-16T14:59:26.022Z,12.52
2022-10-16T15:01:53.665Z,13.48
2022-10-16T15:04:21.391Z,11.27
2022-10-16T15:06:48.951Z,11.10
2022-10-16T15:09:16.505Z,8.75
2022-10-16T15:11:44.281Z,12.38
2022-10-16T15:19:09.986Z,13.18
2022-10-16T15:21:37.437Z,13.18
2022-10-16T15:24:10.709Z,23.05
2022-10-16T15:26:38.090Z,9.25
2022-10-16T15:29:05.888Z,8.63
2022-10-16T15:31:33.782Z,13.50
2022-10-16T15:34:05.374Z,9.15
2022-10-16T15:36:37.792Z,10.73
2022-10-16T15:39:07.208Z,16.08
2022-10-16T15:41:34.763Z,9.88
2022-10-16T15:44:02.240Z,12.77
2022-10-16T15:46:31.937Z,9.80
2022-10-16T15:49:00.284Z,25.25
2022-10-16T15:51:30.460Z,15.52
2022-10-16T15:53:58.207Z,10.97
2022-10-16T15:56:26.738Z,8.88
2022-10-16T15:58:54.937Z,8.82
2022-10-16T16:01:22.954Z,8.30
2022-10-16T16:03:54.597Z,20.50
2022-10-16T16:06:23.993Z,17.48
2022-10-16T16:08:52.667Z,15.60
2022-10-16T16:11:21.498Z,13.45
2022-10-16T16:13:48.987Z,19.40
2022-10-16T16:16:18.703Z,15.20
2022-10-16T16:18:46.170Z,19.50
2022-10-16T16:21:14.218Z,13.07
2022-10-16T16:23:41.746Z,11.20
2022-10-16T16:26:27.225Z,16.40
2022-10-16T16:28:56.857Z,14.75
2022-10-16T16:31:29.294Z,12.55
2022-10-16T16:33:58.059Z,22.88
2022-10-16T16:36:26.287Z,16.75
2022-10-16T16:38:53.734Z,20.88
2022-10-16T16:41:24.354Z,20.35
2022-10-16T16:43:52.484Z,14.15
2022-10-16T16:46:21.066Z,20.90
2022-10-16T16:48:51.332Z,15.77
2022-10-16T16:51:20.866Z,18.98
2022-10-16T16:53:53.784Z,21.88
2022-10-16T16:56:23.356Z,17.27
2022-10-16T16:58:53.438Z,20.48
2022-10-16T17:01:22.026Z,15.95
2022-10-16T17:03:52.951Z,17.75
2022-10-16T17:06:22.315Z,11.32
2022-10-16T17:08:50.826Z,13.40
2022-10-16T17:11:23.766Z,11.38
2022-10-16T17:13:56.476Z,14.23
2022-10-16T17:16:30.933Z,14.73
2022-10-16T17:19:03.143Z,12.82
2022-10-16T17:21:31.827Z,12.65
2022-10-16T17:24:01.074Z,9.68
2022-10-16T17:26:28.940Z,10.52
2022-10-16T17:28:59.256Z,9.63
2022-10-16T17:31:29.714Z,9.57
2022-10-16T17:33:59.626Z,15.00
2022-10-16T17:36:29.837Z,9.68
2022-10-16T17:39:06.928Z,11.53
2022-10-16T17:41:35.503Z,14.63
2022-10-16T17:44:04.381Z,20.70
2022-10-16T17:46:36.876Z,11.00
2022-10-16T17:49:07.906Z,8.70
2022-10-16T17:51:35.390Z,10.82
2022-10-16T17:54:03.020Z,12.20
2022-10-16T17:56:31.270Z,14.93
2022-10-16T17:59:01.901Z,15.45
2022-10-16T18:01:32.440Z,11.82
2022-10-16T18:04:07.488Z,10.93
2022-10-16T18:06:36.050Z,14.80
2022-10-16T18:09:05.107Z,10.73
2022-10-16T18:11:33.027Z,13.52
2022-10-16T18:14:01.003Z,13.05
2022-10-16T18:16:30.311Z,17.23
2022-10-16T18:18:58.641Z,11.52
2022-10-16T18:21:27.650Z,10.68
2022-10-16T18:23:55.659Z,18.00
2022-10-16T18:26:23.968Z,14.68
2022-10-16T18:28:58.541Z,7.18
2022-10-16T18:31:26.945Z,8.88
2022-10-16T18:33:55.929Z,10.98
2022-10-16T18:36:35.176Z,8.80
2022-10-16T18:39:09.509Z,10.13
2022-10-16T18:41:38.747Z,11.20
2022-10-16T18:44:07.162Z,7.00
2022-10-16T18:46:34.724Z,6.95
2022-10-16T18:49:02.593Z,9.70
2022-10-16T18:51:33.286Z,8.15
2022-10-16T18:54:09.195Z,6.97
2022-10-16T18:56:37.093Z,8.57
2022-10-16T18:59:06.952Z,9.50
2022-10-16T19:01:36.246Z,10.70
2022-10-16T19:04:16.168Z,6.45
2022-10-16T19:06:47.217Z,6.85
2022-10-16T19:09:16.510Z,6.63
2022-10-16T19:11:44.852Z,11.75
2022-10-16T19:14:14.203Z,7.40
2022-10-16T19:16:43.265Z,7.10
2022-10-16T19:19:14.277Z,8.25
2022-10-16T19:21:41.901Z,11.98
2022-10-16T19:24:12.941Z,8.73
2022-10-16T19:26:42.142Z,4.97
2022-10-16T19:29:10.837Z,6.38
2022-10-16T19:31:38.794Z,8.82
2022-10-16T19:34:07.650Z,7.53
2022-10-16T19:36:37.019Z,7.80
2022-10-16T19:39:16.855Z,9.48
2022-10-16T19:41:45.418Z,10.65
2022-10-16T19:44:15.744Z,7.10
2022-10-16T19:46:44.481Z,6.82
2022-10-16T19:49:15.161Z,9.30
2022-10-16T19:51:42.717Z,6.18
2022-10-16T19:54:14.376Z,6.03
2022-10-16T19:56:42.799Z,9.77
2022-10-16T19:59:13.175Z,6.63
2022-10-16T20:01:40.998Z,6.68
2022-10-16T20:04:08.558Z,8.05
2022-10-16T20:06:35.978Z,7.57
2022-10-16T20:09:04.122Z,8.65
2022-10-16T20:11:33.588Z,8.07
2022-10-16T20:14:01.213Z,10.38
2022-10-16T20:16:29.988Z,7.30
2022-10-16T20:18:59.227Z,10.75
2022-10-16T20:21:29.736Z,7.05
2022-10-16T20:23:59.505Z,6.82
2022-10-16T20:26:27.274Z,6.45
2022-10-16T20:28:55.500Z,8.88
2022-10-16T20:31:25.630Z,7.70
2022-10-16T20:33:55.846Z,5.13
2022-10-16T20:36:24.696Z,9.80
2022-10-16T20:38:52.853Z,5.80
2022-10-16T20:41:20.949Z,6.40
2022-10-16T20:43:49.761Z,8.90
2022-10-16T20:46:19.822Z,7.43
2022-10-16T20:48:47.636Z,11.52
2022-10-16T20:51:20.955Z,17.33
2022-10-16T20:53:53.129Z,11.63
2022-10-16T20:56:20.706Z,11.77
2022-10-16T20:58:48.141Z,13.55
2022-10-16T21:01:17.784Z,15.93
2022-10-16T21:03:51.038Z,13.73
2022-10-16T21:06:18.474Z,13.93
2022-10-16T21:08:46.155Z,12.70
2022-10-16T21:11:34.882Z,14.23
2022-10-16T21:14:04.421Z,9.50
2022-10-16T21:16:32.713Z,11.85
2022-10-16T21:19:00.514Z,9.75
2022-10-16T21:21:30.377Z,8.25
2022-10-16T21:23:59.141Z,10.18
2022-10-16T21:26:28.019Z,7.38
2022-10-16T21:29:00.453Z,7.78
2022-10-16T21:31:28.624Z,10.90
2022-10-16T21:33:56.708Z,14.75
2022-10-16T21:36:29.466Z,6.97
2022-10-16T21:39:04.765Z,9.45
2022-10-16T21:41:32.656Z,11.85
2022-10-16T21:44:00.915Z,10.55
2022-10-16T21:46:31.937Z,8.85
2022-10-16T21:49:01.509Z,12.00
2022-10-16T21:51:37.075Z,10.02
2022-10-16T21:54:06.728Z,13.43
2022-10-16T21:56:34.794Z,10.32
2022-10-16T21:59:02.788Z,13.13
2022-10-16T22:01:31.244Z,11.57
2022-10-16T22:03:59.523Z,8.30
2022-10-16T22:06:28.417Z,9.57
2022-10-16T22:09:00.103Z,10.45
2022-10-16T22:11:29.160Z,9.05
2022-10-16T22:13:57.120Z,10.30
2022-10-16T22:16:26.595Z,7.53
2022-10-16T22:18:56.283Z,7.35
2022-10-16T22:21:24.594Z,11.85
2022-10-16T22:23:52.089Z,9.65
2022-10-16T22:26:19.855Z,13.32
2022-10-16T22:28:47.394Z,9.13
2022-10-16T22:31:15.838Z,9.23
2022-10-16T22:33:43.935Z,9.43
2022-10-16T22:36:14.152Z,7.85
2022-10-16T22:38:42.102Z,7.97
2022-10-16T22:41:12.094Z,8.57
2022-10-16T22:43:44.583Z,10.30
2022-10-16T22:46:15.536Z,8.30
2022-10-16T22:48:43.763Z,7.15
2022-10-16T22:51:16.711Z,15.55
2022-10-16T22:53:46.756Z,6.55
2022-10-16T22:56:15.848Z,8.25
2022-10-16T22:58:43.846Z,5.97
2022-10-16T23:01:18.620Z,7.03
2022-10-16T23:03:46.267Z,6.07
2022-10-16T23:06:13.794Z,4.85
2022-10-16T23:08:41.612Z,8.55
2022-10-16T23:11:11.476Z,8.18
2022-10-16T23:13:43.601Z,8.02
2022-10-16T23:16:12.562Z,7.85
2022-10-16T23:18:40.840Z,6.32
2022-10-16T23:21:10.831Z,7.78
2022-10-16T23:23:39.264Z,7.18
2022-10-16T23:26:18.779Z,8.13
2022-10-16T23:28:46.364Z,8.00
2022-10-16T23:31:15.313Z,10.88
2022-10-16T23:33:43.263Z,8.43
2022-10-16T23:36:14.628Z,10.40
2022-10-16T23:38:43.421Z,8.25
2022-10-16T23:41:11.519Z,7.30
2022-10-16T23:43:39.034Z,6.68
2022-10-16T23:46:08.088Z,7.00
2022-10-16T23:48:35.790Z,8.95
2022-10-16T23:51:03.282Z,6.07
2022-10-16T23:53:30.810Z,7.35
2022-10-16T23:55:58.273Z,6.70
2022-10-16T23:58:25.768Z,7.45
